createdAt,value
2022-09-12T00:01:15.732Z,76.93
2022-09-12T00:03:44.456Z,76.95
2022-09-12T00:06:15.223Z,77.14
2022-09-12T00:08:45.684Z,77.02
2022-09-12T00:11:14.299Z,76.92
2022-09-12T00:13:43.047Z,77.01
2022-09-12T00:16:16.182Z,76.96
2022-09-12T00:18:45.575Z,76.96
2022-09-12T00:21:14.162Z,77.24
2022-09-12T00:23:42.233Z,77.37
2022-09-12T00:26:10.132Z,77.32
2022-09-12T00:28:38.787Z,77.37
2022-09-12T00:31:17.332Z,77.66
2022-09-12T00:33:45.698Z,77.59
2022-09-12T00:36:15.599Z,77.29
2022-09-12T00:38:44.499Z,77.56
2022-09-12T00:41:17.850Z,77.34
2022-09-12T00:43:48.108Z,77.09
2022-09-12T00:46:20.789Z,76.99
2022-09-12T00:48:58.976Z,76.94
2022-09-12T00:51:28.402Z,76.88
2022-09-12T00:53:57.195Z,76.71
2022-09-12T00:56:26.184Z,76.70
2022-09-12T00:59:01.151Z,76.60
2022-09-12T01:01:32.387Z,76.73
2022-09-12T01:04:01.869Z,76.86
2022-09-12T01:06:33.218Z,76.71
2022-09-12T01:09:04.391Z,77.09
2022-09-12T01:11:34.584Z,77.50
2022-09-12T01:14:02.656Z,77.40
2022-09-12T01:16:31.423Z,77.56
2022-09-12T01:19:15.188Z,77.60
2022-09-12T01:21:54.484Z,77.67
2022-09-12T01:24:48.193Z,77.80
2022-09-12T01:27:16.880Z,77.89
2022-09-12T01:30:03.284Z,77.81
2022-09-12T01:32:46.408Z,78.06
2022-09-12T01:35:21.655Z,78.13
2022-09-12T01:38:11.019Z,78.02
2022-09-12T01:40:49.163Z,78.35
2022-09-12T01:43:25.289Z,78.28
2022-09-12T01:46:11.997Z,78.34
2022-09-12T01:48:44.844Z,78.61
2022-09-12T01:51:33.098Z,79.24
2022-09-12T01:54:10.209Z,79.60
2022-09-12T01:56:40.229Z,79.33
2022-09-12T01:59:15.469Z,79.32
2022-09-12T02:01:50.569Z,79.59
2022-09-12T02:04:21.078Z,79.91
2022-09-12T02:06:59.225Z,78.86
2022-09-12T02:09:35.815Z,78.84
2022-09-12T02:12:06.138Z,78.64
2022-09-12T02:14:38.279Z,77.46
2022-09-12T02:17:12.113Z,77.09
2022-09-12T02:19:58.327Z,76.24
2022-09-12T02:22:27.996Z,76.36
2022-09-12T02:24:58.917Z,78.17
2022-09-12T02:27:32.611Z,78.44
2022-09-12T02:30:00.485Z,77.24
2022-09-12T02:32:30.806Z,78.19
2022-09-12T02:35:08.680Z,78.62
2022-09-12T02:37:45.440Z,78.11
2022-09-12T02:40:14.157Z,78.32
2022-09-12T02:42:42.466Z,77.85
2022-09-12T02:45:11.904Z,78.33
2022-09-12T02:47:46.328Z,78.50
2022-09-12T02:50:14.448Z,78.16
2022-09-12T02:52:42.981Z,78.89
2022-09-12T02:55:11.873Z,79.95
2022-09-12T02:57:39.672Z,80.56
2022-09-12T03:00:08.201Z,80.32
2022-09-12T03:02:35.955Z,80.45
2022-09-12T03:05:03.663Z,79.74
2022-09-12T03:07:41.138Z,79.96
2022-09-12T03:10:09.004Z,80.21
2022-09-12T03:12:39.944Z,80.67
2022-09-12T03:15:07.916Z,81.24
2022-09-12T03:17:41.927Z,80.92
2022-09-12T03:20:22.084Z,81.05
2022-09-12T03:22:58.550Z,80.59
2022-09-12T03:25:32.461Z,81.09
2022-09-12T03:28:07.537Z,80.98
2022-09-12T03:30:40.789Z,81.50
2022-09-12T03:33:12.346Z,81.01
2022-09-12T03:35:40.401Z,80.99
2022-09-12T03:38:08.588Z,80.64
2022-09-12T03:40:37.177Z,81.27
2022-09-12T03:43:06.269Z,81.61
2022-09-12T03:45:34.860Z,81.26
2022-09-12T03:48:03.538Z,81.03
2022-09-12T03:50:31.408Z,81.97
2022-09-12T03:53:00.011Z,81.87
2022-09-12T03:55:27.959Z,81.88
2022-09-12T03:57:55.932Z,82.04
2022-09-12T04:00:24.086Z,82.21
2022-09-12T04:02:56.332Z,82.31
2022-09-12T04:05:25.548Z,81.68
2022-09-12T04:07:53.611Z,81.64
2022-09-12T04:10:22.696Z,81.64
2022-09-12T04:12:52.144Z,81.59
2022-09-12T04:15:20.113Z,81.53
2022-09-12T04:17:47.981Z,81.85
2022-09-12T04:20:15.813Z,81.73
2022-09-12T04:22:43.844Z,82.18
2022-09-12T04:25:11.890Z,82.08
2022-09-12T04:27:39.862Z,81.84
2022-09-12T04:30:08.976Z,81.85
2022-09-12T04:32:36.843Z,82.00
2022-09-12T04:35:05.085Z,81.60
2022-09-12T04:37:33.184Z,79.56
2022-09-12T04:40:01.170Z,79.61
2022-09-12T04:42:29.826Z,78.95
2022-09-12T04:44:57.852Z,78.37
2022-09-12T04:47:25.771Z,78.54
2022-09-12T04:49:54.077Z,78.84
2022-09-12T04:52:22.014Z,78.83
2022-09-12T04:54:49.832Z,79.14
2022-09-12T04:57:18.055Z,78.02
2022-09-12T04:59:45.796Z,77.73
2022-09-12T05:02:13.682Z,77.68
2022-09-12T05:04:41.656Z,76.85
2022-09-12T05:07:09.728Z,76.33
2022-09-12T05:09:37.666Z,75.75
2022-09-12T05:12:06.071Z,75.14
2022-09-12T05:14:34.358Z,73.85
2022-09-12T05:17:02.785Z,71.58
2022-09-12T05:19:31.080Z,69.82
2022-09-12T05:21:59.303Z,70.44
2022-09-12T05:24:27.311Z,70.99
2022-09-12T05:26:55.225Z,71.44
2022-09-12T05:29:23.078Z,71.63
2022-09-12T05:31:53.013Z,70.21
2022-09-12T05:34:21.132Z,67.53
2022-09-12T05:36:49.361Z,67.84
2022-09-12T05:39:18.773Z,66.71
2022-09-12T05:41:47.456Z,67.19
2022-09-12T05:44:15.436Z,67.09
2022-09-12T05:46:45.229Z,66.27
2022-09-12T05:49:14.622Z,66.95
2022-09-12T05:51:44.344Z,67.67
2022-09-12T05:54:13.443Z,67.08
2022-09-12T05:56:42.377Z,66.26
2022-09-12T05:59:15.118Z,64.94
2022-09-12T06:01:43.172Z,63.45
2022-09-12T06:04:11.366Z,60.91
2022-09-12T06:06:41.806Z,59.35
2022-09-12T06:09:10.100Z,58.06
2022-09-12T06:11:40.963Z,58.48
2022-09-12T06:14:10.205Z,57.70
2022-09-12T06:16:39.134Z,54.79
2022-09-12T06:19:08.425Z,51.79
2022-09-12T06:21:36.464Z,48.12
2022-09-12T06:24:04.657Z,44.17
2022-09-12T06:26:33.433Z,41.72
2022-09-12T06:29:03.153Z,38.99
2022-09-12T06:31:33.233Z,34.27
2022-09-12T06:34:02.323Z,33.66
2022-09-12T06:36:31.567Z,35.15
2022-09-12T06:39:01.268Z,36.07
2022-09-12T06:41:29.895Z,36.34
2022-09-12T06:43:58.640Z,36.32
2022-09-12T06:46:27.237Z,37.08
2022-09-12T06:48:59.808Z,36.09
2022-09-12T06:51:28.843Z,34.53
2022-09-12T06:53:57.274Z,30.71
2022-09-12T06:56:26.680Z,26.46
2022-09-12T06:58:58.986Z,24.91
2022-09-12T07:01:28.813Z,23.61
2022-09-12T07:03:58.930Z,22.42
2022-09-12T07:06:32.483Z,23.76
2022-09-12T07:09:01.475Z,22.80
2022-09-12T07:11:34.133Z,19.59
2022-09-12T07:14:03.225Z,18.63
2022-09-12T07:16:32.943Z,17.61
2022-09-12T07:19:01.891Z,16.89
2022-09-12T07:21:30.098Z,16.84
2022-09-12T07:23:58.841Z,17.95
2022-09-12T07:26:27.810Z,16.44
2022-09-12T07:29:12.888Z,16.11
2022-09-12T07:31:45.460Z,16.28
2022-09-12T07:34:14.143Z,16.18
2022-09-12T07:36:42.013Z,14.82
2022-09-12T07:39:09.775Z,14.86
2022-09-12T07:41:37.648Z,14.71
2022-09-12T07:44:07.243Z,14.57
2022-09-12T07:46:35.978Z,13.87
2022-09-12T07:49:03.779Z,12.75
2022-09-12T07:51:32.083Z,12.28
2022-09-12T07:53:59.949Z,13.30
2022-09-12T07:56:31.192Z,13.69
2022-09-12T07:59:01.112Z,14.30
2022-09-12T08:01:30.042Z,15.88
2022-09-12T08:03:59.305Z,17.29
2022-09-12T08:06:28.098Z,18.15
2022-09-12T08:08:57.659Z,19.53
2022-09-12T08:11:28.133Z,21.47
2022-09-12T08:13:57.750Z,22.80
2022-09-12T08:16:27.142Z,23.68
2022-09-12T08:18:55.517Z,24.18
2022-09-12T08:21:24.620Z,25.19
2022-09-12T08:23:56.429Z,25.89
2022-09-12T08:26:25.024Z,27.56
2022-09-12T08:28:53.852Z,28.44
2022-09-12T08:31:23.075Z,29.34
2022-09-12T08:33:51.942Z,30.43
2022-09-12T08:36:21.576Z,31.02
2022-09-12T08:38:59.302Z,31.56
2022-09-12T08:41:35.117Z,32.38
2022-09-12T08:44:21.770Z,32.49
2022-09-12T08:47:11.231Z,32.44
2022-09-12T08:49:48.454Z,32.98
2022-09-12T08:52:21.503Z,33.71
2022-09-12T08:54:50.749Z,34.19
2022-09-12T08:57:19.338Z,33.73
2022-09-12T08:59:48.537Z,33.60
2022-09-12T09:02:27.201Z,32.58
2022-09-12T09:05:07.374Z,32.42
2022-09-12T09:07:53.375Z,32.23
2022-09-12T09:10:33.369Z,32.75
2022-09-12T09:13:12.132Z,33.06
2022-09-12T09:16:02.112Z,32.53
2022-09-12T09:18:33.108Z,32.84
2022-09-12T09:21:16.745Z,33.58
2022-09-12T09:23:46.775Z,33.39
2022-09-12T09:26:29.783Z,32.81
2022-09-12T09:29:00.070Z,34.41
2022-09-12T09:31:31.104Z,35.49
2022-09-12T09:34:00.173Z,35.43
2022-09-12T09:36:40.200Z,35.56
2022-09-12T09:39:13.905Z,36.45
2022-09-12T09:42:07.310Z,36.79
2022-09-12T09:44:35.347Z,35.83
2022-09-12T09:47:03.205Z,35.21
2022-09-12T09:49:35.271Z,34.93
2022-09-12T09:52:06.190Z,34.63
2022-09-12T09:54:34.189Z,34.26
2022-09-12T09:57:02.088Z,34.45
2022-09-12T09:59:31.995Z,35.34
2022-09-12T10:02:04.031Z,35.29
2022-09-12T10:04:41.086Z,35.13
2022-09-12T10:07:18.952Z,34.60
2022-09-12T10:10:07.177Z,34.49
2022-09-12T10:12:35.330Z,35.03
2022-09-12T10:15:16.151Z,36.85
2022-09-12T10:17:44.743Z,35.81
2022-09-12T10:20:32.271Z,36.69
2022-09-12T10:23:01.315Z,36.30
2022-09-12T10:25:29.191Z,36.03
2022-09-12T10:28:01.045Z,37.28
2022-09-12T10:30:29.213Z,36.81
2022-09-12T10:33:05.071Z,34.89
2022-09-12T10:35:43.894Z,36.56
2022-09-12T10:38:34.914Z,36.12
2022-09-12T10:41:07.792Z,36.62
2022-09-12T10:43:37.508Z,35.93
2022-09-12T10:46:12.225Z,36.83
2022-09-12T10:48:40.375Z,35.72
2022-09-12T10:51:15.535Z,34.96
2022-09-12T10:53:45.735Z,35.03
2022-09-12T10:56:13.730Z,34.40
2022-09-12T10:58:41.597Z,34.68
2022-09-12T11:01:42.071Z,34.87
2022-09-12T11:04:25.151Z,35.08
2022-09-12T11:07:06.945Z,37.09
2022-09-12T11:09:45.461Z,37.09
2022-09-12T11:12:13.542Z,35.89
2022-09-12T11:14:47.238Z,35.27
2022-09-12T11:17:17.258Z,36.06
2022-09-12T11:19:51.266Z,36.11
2022-09-12T11:22:34.155Z,36.71
2022-09-12T11:25:12.913Z,38.00
2022-09-12T11:28:04.742Z,36.46
2022-09-12T11:30:38.080Z,36.51
2022-09-12T11:33:29.663Z,35.34
2022-09-12T11:35:57.934Z,34.68
2022-09-12T11:38:25.659Z,33.91
2022-09-12T11:40:57.050Z,33.82
2022-09-12T11:43:43.344Z,33.81
2022-09-12T11:46:11.294Z,33.75
2022-09-12T11:48:42.974Z,32.55
2022-09-12T11:51:23.976Z,33.38
2022-09-12T11:53:59.904Z,33.51
2022-09-12T11:56:27.872Z,32.46
2022-09-12T11:59:03.164Z,32.10
2022-09-12T12:01:48.203Z,32.91
2022-09-12T12:04:18.207Z,32.75
2022-09-12T12:06:52.693Z,32.70
2022-09-12T12:09:21.225Z,34.25
2022-09-12T12:11:53.170Z,34.80
2022-09-12T12:14:24.011Z,34.20
2022-09-12T12:16:52.291Z,34.22
2022-09-12T12:19:32.953Z,35.07
2022-09-12T12:22:06.884Z,36.01
2022-09-12T12:24:34.833Z,35.37
2022-09-12T12:27:23.176Z,34.60
2022-09-12T12:29:51.557Z,35.06
2022-09-12T12:32:20.958Z,35.50
2022-09-12T12:34:48.931Z,34.57
2022-09-12T12:37:21.085Z,34.09
2022-09-12T12:39:52.090Z,32.81
2022-09-12T12:42:46.536Z,32.97
2022-09-12T12:45:17.983Z,34.16
2022-09-12T12:47:47.759Z,34.84
2022-09-12T12:50:21.700Z,35.81
2022-09-12T12:52:59.033Z,35.74
2022-09-12T12:55:29.532Z,35.90
2022-09-12T12:57:58.049Z,34.56
2022-09-12T13:00:29.987Z,35.52
2022-09-12T13:03:04.413Z,35.59
2022-09-12T13:05:42.950Z,35.89
2022-09-12T13:08:26.662Z,36.14
2022-09-12T13:10:58.106Z,36.07
2022-09-12T13:13:29.053Z,34.37
2022-09-12T13:15:56.957Z,34.16
2022-09-12T13:18:27.939Z,34.16
2022-09-12T13:21:01.359Z,34.21
2022-09-12T13:23:30.615Z,34.92
2022-09-12T13:26:00.689Z,35.39
2022-09-12T13:28:30.307Z,36.05
2022-09-12T13:31:01.368Z,35.85
2022-09-12T13:33:36.342Z,36.07
2022-09-12T13:36:23.065Z,36.71
2022-09-12T13:39:09.063Z,36.42
2022-09-12T13:41:45.919Z,35.47
2022-09-12T13:44:16.613Z,34.82
2022-09-12T13:46:45.024Z,35.32
2022-09-12T13:49:22.833Z,35.54
2022-09-12T13:52:14.986Z,35.33
2022-09-12T13:54:44.862Z,35.40
2022-09-12T13:57:48.146Z,36.02
2022-09-12T14:00:19.865Z,36.98
2022-09-12T14:02:48.652Z,36.85
2022-09-12T14:05:22.280Z,37.34
2022-09-12T14:07:58.426Z,36.99
2022-09-12T14:10:33.334Z,37.46
2022-09-12T14:13:03.148Z,37.53
2022-09-12T14:15:32.659Z,37.79
2022-09-12T14:18:02.079Z,37.60
2022-09-12T14:20:32.651Z,37.66
2022-09-12T14:23:02.908Z,37.79
2022-09-12T14:25:37.350Z,37.66
2022-09-12T14:28:06.215Z,36.36
2022-09-12T14:30:37.448Z,35.36
2022-09-12T14:33:05.552Z,36.17
2022-09-12T14:35:33.615Z,36.40
2022-09-12T14:38:16.731Z,36.99
2022-09-12T14:40:46.236Z,36.92
2022-09-12T14:43:20.245Z,38.38
2022-09-12T14:46:06.595Z,38.76
2022-09-12T14:48:36.588Z,38.89
2022-09-12T14:51:05.411Z,38.81
2022-09-12T14:53:34.809Z,38.52
2022-09-12T14:56:06.317Z,39.05
2022-09-12T14:58:34.487Z,38.91
2022-09-12T15:01:08.383Z,39.34
2022-09-12T15:03:46.006Z,39.49
2022-09-12T15:06:30.779Z,38.76
2022-09-12T15:09:00.772Z,38.64
2022-09-12T15:11:29.048Z,39.30
2022-09-12T15:13:56.917Z,39.49
2022-09-12T15:16:25.074Z,39.87
2022-09-12T15:18:53.056Z,39.53
2022-09-12T15:21:21.337Z,40.49
2022-09-12T15:23:50.125Z,41.43
2022-09-12T15:26:22.803Z,41.18
2022-09-12T15:28:51.015Z,41.48
2022-09-12T15:31:24.690Z,41.98
2022-09-12T15:33:53.250Z,42.52
2022-09-12T15:36:22.026Z,43.24
2022-09-12T15:38:50.643Z,44.24
2022-09-12T15:41:23.523Z,45.10
2022-09-12T15:43:51.396Z,45.31
2022-09-12T15:46:20.315Z,44.99
2022-09-12T15:48:48.358Z,44.21
2022-09-12T15:51:20.343Z,44.92
2022-09-12T15:53:49.123Z,45.42
2022-09-12T15:56:18.311Z,45.82
2022-09-12T15:58:58.374Z,47.04
2022-09-12T16:01:27.733Z,47.58
2022-09-12T16:03:56.051Z,47.96
2022-09-12T16:06:24.084Z,47.66
2022-09-12T16:08:51.907Z,48.24
2022-09-12T16:11:26.743Z,48.15
2022-09-12T16:13:55.289Z,48.00
2022-09-12T16:16:23.210Z,48.44
2022-09-12T16:18:51.229Z,49.77
2022-09-12T16:21:19.401Z,50.21
2022-09-12T16:23:47.893Z,50.55
2022-09-12T16:26:16.472Z,51.34
2022-09-12T16:28:44.852Z,53.15
2022-09-12T16:31:14.618Z,53.36
2022-09-12T16:33:42.657Z,54.27
2022-09-12T16:36:11.693Z,53.78
2022-09-12T16:38:43.587Z,54.84
2022-09-12T16:41:11.964Z,55.14
2022-09-12T16:43:40.764Z,54.47
2022-09-12T16:46:08.620Z,54.30
2022-09-12T16:48:37.942Z,55.45
2022-09-12T16:51:07.530Z,55.07
2022-09-12T16:53:37.156Z,54.39
2022-09-12T16:56:06.031Z,54.50
2022-09-12T16:58:38.489Z,55.64
2022-09-12T17:01:10.469Z,55.73
2022-09-12T17:03:38.642Z,55.60
2022-09-12T17:06:08.594Z,55.98
2022-09-12T17:08:38.178Z,55.48
2022-09-12T17:11:07.581Z,56.94
2022-09-12T17:13:53.308Z,57.36
2022-09-12T17:16:23.958Z,57.73
2022-09-12T17:18:52.767Z,57.95
2022-09-12T17:21:21.193Z,58.19
2022-09-12T17:23:49.376Z,58.25
2022-09-12T17:26:17.225Z,57.79
2022-09-12T17:28:45.189Z,58.02
2022-09-12T17:31:14.579Z,58.31
2022-09-12T17:33:43.091Z,58.11
2022-09-12T17:36:15.149Z,59.40
2022-09-12T17:38:44.036Z,59.08
2022-09-12T17:41:17.934Z,59.21
2022-09-12T17:43:56.670Z,59.13
2022-09-12T17:46:26.011Z,59.47
2022-09-12T17:48:54.951Z,58.71
2022-09-12T17:51:25.088Z,58.21
2022-09-12T17:54:04.522Z,58.60
2022-09-12T17:56:33.502Z,57.57
2022-09-12T17:59:01.995Z,59.11
2022-09-12T18:01:48.662Z,59.30
2022-09-12T18:04:17.482Z,59.74
2022-09-12T18:06:48.212Z,60.44
2022-09-12T18:09:18.132Z,60.96
2022-09-12T18:11:46.412Z,62.33
2022-09-12T18:14:14.793Z,63.25
2022-09-12T18:16:43.439Z,63.33
2022-09-12T18:19:12.366Z,63.89
2022-09-12T18:21:40.437Z,63.27
2022-09-12T18:24:09.236Z,62.62
2022-09-12T18:26:37.042Z,63.22
2022-09-12T18:29:04.918Z,64.07
2022-09-12T18:31:34.084Z,64.37
2022-09-12T18:34:02.815Z,64.38
2022-09-12T18:36:31.123Z,63.73
2022-09-12T18:38:59.715Z,63.24
2022-09-12T18:41:29.097Z,62.88
2022-09-12T18:43:58.002Z,62.72
2022-09-12T18:46:27.188Z,62.97
2022-09-12T18:48:57.754Z,62.91
2022-09-12T18:51:31.409Z,63.05
2022-09-12T18:54:00.733Z,62.14
2022-09-12T18:56:32.911Z,61.53
2022-09-12T18:59:01.695Z,60.73
2022-09-12T19:01:30.925Z,60.97
2022-09-12T19:04:00.917Z,61.56
2022-09-12T19:06:30.127Z,61.57
2022-09-12T19:09:00.162Z,60.58
2022-09-12T19:11:30.001Z,60.16
2022-09-12T19:13:57.807Z,60.54
2022-09-12T19:16:26.987Z,61.31
2022-09-12T19:18:55.408Z,60.88
2022-09-12T19:21:25.206Z,60.13
2022-09-12T19:23:56.104Z,60.15
2022-09-12T19:26:24.204Z,59.68
2022-09-12T19:28:53.404Z,60.41
2022-09-12T19:31:23.285Z,60.84
2022-09-12T19:33:52.528Z,59.86
2022-09-12T19:36:43.712Z,59.64
2022-09-12T19:39:09.487Z,57.89
2022-09-12T19:41:37.422Z,57.29
2022-09-12T19:44:05.638Z,57.14
2022-09-12T19:46:33.753Z,57.37
2022-09-12T19:49:01.841Z,57.77
2022-09-12T19:51:29.730Z,59.12
2022-09-12T19:53:57.544Z,60.17
2022-09-12T19:56:25.338Z,58.58
2022-09-12T19:58:56.317Z,58.42
2022-09-12T20:01:29.747Z,59.15
2022-09-12T20:03:58.376Z,59.79
2022-09-12T20:06:27.389Z,60.17
2022-09-12T20:08:55.760Z,59.87
2022-09-12T20:11:24.095Z,60.57
2022-09-12T20:13:52.527Z,60.65
2022-09-12T20:16:22.878Z,60.73
2022-09-12T20:18:58.846Z,60.59
2022-09-12T20:21:31.654Z,61.07
2022-09-12T20:24:03.219Z,60.42
2022-09-12T20:26:31.756Z,61.07
2022-09-12T20:28:59.970Z,61.02
2022-09-12T20:31:28.476Z,62.33
2022-09-12T20:33:56.427Z,61.85
2022-09-12T20:36:25.157Z,63.32
2022-09-12T20:38:56.943Z,62.23
2022-09-12T20:41:26.169Z,62.30
2022-09-12T20:43:55.089Z,62.67
2022-09-12T20:46:23.563Z,62.28
2022-09-12T20:48:52.022Z,61.47
2022-09-12T20:51:20.456Z,61.94
2022-09-12T20:53:48.659Z,62.63
2022-09-12T20:56:16.614Z,62.50
2022-09-12T20:58:44.914Z,62.11
2022-09-12T21:01:14.229Z,61.67
2022-09-12T21:03:43.091Z,62.06
2022-09-12T21:06:12.732Z,61.76
2022-09-12T21:08:40.647Z,61.17
2022-09-12T21:11:09.147Z,60.96
2022-09-12T21:13:37.598Z,61.48
2022-09-12T21:16:07.403Z,62.39
2022-09-12T21:18:36.057Z,61.80
2022-09-12T21:21:05.365Z,60.93
2022-09-12T21:23:33.780Z,61.32
2022-09-12T21:26:02.589Z,61.48
2022-09-12T21:28:31.109Z,61.98
2022-09-12T21:30:59.112Z,61.97
2022-09-12T21:33:27.865Z,61.67
2022-09-12T21:35:56.248Z,62.20
2022-09-12T21:38:24.070Z,61.85
2022-09-12T21:40:51.913Z,61.44
2022-09-12T21:43:19.847Z,62.21
2022-09-12T21:45:48.585Z,61.85
2022-09-12T21:48:16.479Z,61.94
2022-09-12T21:50:49.493Z,61.36
2022-09-12T21:53:17.461Z,61.16
2022-09-12T21:55:45.425Z,61.26
2022-09-12T21:58:13.400Z,61.47
2022-09-12T22:00:41.923Z,61.49
2022-09-12T22:03:10.568Z,61.02
2022-09-12T22:05:40.430Z,61.25
2022-09-12T22:08:08.350Z,61.01
2022-09-12T22:10:37.331Z,61.93
2022-09-12T22:13:05.754Z,61.45
2022-09-12T22:15:40.471Z,61.24
2022-09-12T22:18:09.089Z,61.64
2022-09-12T22:20:36.903Z,61.40
2022-09-12T22:23:25.060Z,60.98
2022-09-12T22:25:54.563Z,60.98
2022-09-12T22:28:22.830Z,61.90
2022-09-12T22:30:50.842Z,62.30
2022-09-12T22:33:18.768Z,62.32
2022-09-12T22:35:46.817Z,62.18
2022-09-12T22:38:14.707Z,62.57
2022-09-12T22:40:43.086Z,62.82
2022-09-12T22:43:11.670Z,62.72
2022-09-12T22:45:42.506Z,63.04
2022-09-12T22:48:10.466Z,63.35
2022-09-12T22:50:38.529Z,63.61
2022-09-12T22:53:06.621Z,63.26
2022-09-12T22:55:34.593Z,63.24
2022-09-12T22:58:03.994Z,63.72
2022-09-12T23:00:32.075Z,63.34
2022-09-12T23:03:00.107Z,62.65
2022-09-12T23:05:28.620Z,63.17
2022-09-12T23:07:56.485Z,63.23
2022-09-12T23:10:26.197Z,63.06
2022-09-12T23:12:55.557Z,62.81
2022-09-12T23:15:23.433Z,63.02
2022-09-12T23:17:51.651Z,62.69
2022-09-12T23:20:19.713Z,63.39
2022-09-12T23:22:47.622Z,62.65
2022-09-12T23:25:16.063Z,62.83
2022-09-12T23:27:44.236Z,63.06
2022-09-12T23:30:12.304Z,63.11
2022-09-12T23:32:40.065Z,63.14
2022-09-12T23:35:08.149Z,63.02
2022-09-12T23:37:36.218Z,62.91
2022-09-12T23:40:04.420Z,63.28
2022-09-12T23:42:32.363Z,62.91
2022-09-12T23:45:00.535Z,63.27
2022-09-12T23:47:28.454Z,63.08
2022-09-12T23:49:56.376Z,63.54
2022-09-12T23:52:24.244Z,63.94
2022-09-12T23:54:52.053Z,63.59
2022-09-12T23:57:20.282Z,63.85
2022-09-12T23:59:48.263Z,64.40
